Time;durP1;ratioP1;P1;durP2;ratioP2;P2;SDS_P1;SDS_P2;PMS_P1;PMS_P2;Temp;Humidity;BMP_temperature;BMP_pressure;BME280_temperature;BME280_humidity;BME280_pressure;Samples;Min_cycle;Max_cycle;Signal;HPM_P1;HPM_P2
2021/03/04 00:01:53;;;;;;;153.30;71.67;;;;;;;1.39;68.56;95044.27;1810943;79;21167;-51
2021/03/04 00:04:22;;;;;;;141.92;67.47;;;;;;;1.45;68.83;95048.15;1804161;79;21100;-51
2021/03/04 00:06:50;;;;;;;122.45;57.48;;;;;;;1.59;68.48;95037.92;1822109;78;21111;-51
2021/03/04 00:09:18;;;;;;;104.75;52.95;;;;;;;1.63;67.73;95031.93;1822270;78;21429;-51
2021/03/04 00:11:47;;;;;;;94.95;50.35;;;;;;;1.53;67.45;95028.03;1822154;78;21064;-50
2021/03/04 00:14:15;;;;;;;140.90;73.70;;;;;;;1.50;67.54;95030.16;1822162;78;21503;-50
2021/03/04 00:16:44;;;;;;;131.07;71.07;;;;;;;1.49;67.66;95032.67;1822134;78;21055;-51
2021/03/04 00:19:13;;;;;;;135.35;66.37;;;;;;;1.38;68.06;95030.52;1822081;78;21159;-50
2021/03/04 00:21:41;;;;;;;139.00;73.12;;;;;;;1.22;68.43;95028.70;1822137;78;21115;-52
2021/03/04 00:24:10;;;;;;;128.60;68.55;;;;;;;1.07;68.81;95034.42;1822153;78;21418;-53
2021/03/04 00:26:38;;;;;;;121.02;63.85;;;;;;;1.02;69.16;95022.03;1806332;79;21497;-52
2021/03/04 00:29:07;;;;;;;131.25;64.58;;;;;;;0.99;69.24;95015.23;1822124;78;21048;-50
2021/03/04 00:31:35;;;;;;;126.90;64.12;;;;;;;1.00;69.42;95012.12;1822120;78;21079;-51
2021/03/04 00:34:04;;;;;;;128.38;62.73;;;;;;;1.07;69.15;95005.41;1806489;79;21115;-50
2021/03/04 00:36:32;;;;;;;196.98;94.95;;;;;;;1.17;69.17;95000.59;1822123;78;21439;-51
2021/03/04 00:39:00;;;;;;;153.97;74.70;;;;;;;1.29;68.88;94993.50;1822164;78;21535;-50
2021/03/04 00:41:29;;;;;;;167.80;82.10;;;;;;;1.35;68.66;94983.07;1822111;78;21154;-50
2021/03/04 00:43:57;;;;;;;179.50;81.90;;;;;;;1.44;68.43;94991.03;1806362;79;21044;-50
2021/03/04 00:46:25;;;;;;;156.55;73.95;;;;;;;1.47;68.03;94978.06;1822059;78;21076;-52
2021/03/04 00:48:55;;;;;;;148.05;67.55;;;;;;;1.46;67.66;94979.23;1822159;78;21108;-51
2021/03/04 00:51:23;;;;;;;132.90;58.17;;;;;;;1.42;67.69;94974.38;1822169;78;21473;-49
2021/03/04 00:53:52;;;;;;;215.20;92.78;;;;;;;1.45;67.89;94972.26;1806329;79;21150;-50
2021/03/04 00:56:21;;;;;;;198.32;86.92;;;;;;;1.53;67.56;94971.09;1822078;78;21111;-50
2021/03/04 00:58:49;;;;;;;184.00;81.05;;;;;;;1.52;67.46;94968.20;1806370;79;21155;-50
2021/03/04 01:01:18;;;;;;;148.25;65.25;;;;;;;1.54;67.31;94963.16;1822084;78;21426;-52
2021/03/04 01:03:47;;;;;;;154.78;66.95;;;;;;;1.52;67.14;94949.22;1806154;79;21088;-51
2021/03/04 01:06:16;;;;;;;130.12;58.42;;;;;;;1.53;67.38;94948.06;1822185;78;21059;-50
2021/03/04 01:08:47;;;;;;;120.60;54.00;;;;;;;1.53;67.29;94940.52;1822128;78;21055;-50
2021/03/04 01:11:16;;;;;;;118.40;54.88;;;;;;;1.49;67.14;94932.37;1806348;79;21056;-51
2021/03/04 01:13:44;;;;;;;170.85;77.55;;;;;;;1.49;67.26;94934.33;1822104;78;21325;-51
2021/03/04 01:16:12;;;;;;;166.28;72.08;;;;;;;1.47;66.92;94931.23;1822052;78;21520;-50
2021/03/04 01:18:41;;;;;;;146.90;63.00;;;;;;;1.40;67.25;94926.56;1806348;79;21123;-51
2021/03/04 01:21:10;;;;;;;284.75;114.65;;;;;;;1.40;67.13;94926.56;1822089;78;21116;-51
2021/03/04 01:23:38;;;;;;;211.75;94.50;;;;;;;1.35;67.12;94918.03;1822079;78;21048;-51
2021/03/04 01:26:06;;;;;;;180.72;85.77;;;;;;;1.24;67.36;94920.72;1822080;78;21199;-51
2021/03/04 01:28:35;;;;;;;176.75;79.50;;;;;;;1.10;67.60;94913.91;1822061;78;21059;-52
2021/03/04 01:31:04;;;;;;;179.85;79.42;;;;;;;1.07;68.06;94901.13;1806350;79;21060;-50
2021/03/04 01:33:32;;;;;;;173.65;78.95;;;;;;;1.18;68.12;94912.75;1822076;78;21143;-50
2021/03/04 01:36:01;;;;;;;180.37;79.37;;;;;;;1.18;67.94;94903.27;1806356;78;21103;-51
2021/03/04 01:38:30;;;;;;;164.97;74.70;;;;;;;1.15;67.78;94890.49;1822052;78;21355;-50
2021/03/04 01:40:59;;;;;;;175.22;74.00;;;;;;;1.13;68.10;94887.39;1822202;78;21605;-52
2021/03/04 01:43:27;;;;;;;165.07;73.60;;;;;;;1.10;68.07;94878.69;1822064;78;21068;-51
2021/03/04 01:45:55;;;;;;;158.32;70.17;;;;;;;1.12;68.02;94875.02;1806360;79;21468;-50
2021/03/04 01:48:24;;;;;;;143.13;61.48;;;;;;;1.15;68.00;94871.53;1822176;78;21488;-50
2021/03/04 01:50:52;;;;;;;150.57;65.55;;;;;;;1.24;68.06;94872.52;1822136;78;22127;-50
2021/03/04 01:53:20;;;;;;;149.72;67.70;;;;;;;1.20;67.66;94867.11;1806292;79;21091;-51
2021/03/04 01:55:50;;;;;;;155.15;70.95;;;;;;;1.06;68.07;94863.02;1822154;78;21139;-50
2021/03/04 01:58:18;;;;;;;204.45;92.78;;;;;;;1.10;68.58;94863.79;1806356;79;21056;-51
2021/03/04 02:00:47;;;;;;;200.60;93.45;;;;;;;1.12;68.52;94860.11;1822140;78;21445;-51
2021/03/04 02:03:15;;;;;;;212.53;99.20;;;;;;;1.13;69.27;94852.18;1822027;78;21245;-51
2021/03/04 02:05:43;;;;;;;206.60;92.70;;;;;;;1.17;68.98;94846.19;1809416;78;21163;-50
2021/03/04 02:08:34;;;;;;;236.68;105.78;;;;;;;1.16;69.04;94837.86;1822073;78;21108;-50
2021/03/04 02:11:22;;;;;;;212.10;96.17;;;;;;;1.18;69.37;94832.83;1822155;78;21107;-50
2021/03/04 02:13:58;;;;;;;210.38;96.17;;;;;;;1.30;69.29;94833.06;1822068;78;21150;-51
2021/03/04 02:16:35;;;;;;;198.90;96.90;;;;;;;1.40;68.82;94824.94;1806037;79;21557;-50
2021/03/04 02:19:31;;;;;;;211.03;94.40;;;;;;;1.35;68.73;94827.25;1819897;78;21088;-50
2021/03/04 02:22:31;;;;;;;200.93;92.15;;;;;;;1.27;68.66;94821.05;1822163;78;21567;-52
2021/03/04 02:25:16;;;;;;;196.65;92.05;;;;;;;1.18;68.64;94816.58;1809624;79;21107;-50
2021/03/04 02:27:44;;;;;;;216.40;99.05;;;;;;;1.03;69.22;94808.27;1809487;79;21068;-50
2021/03/04 02:30:19;;;;;;;204.97;96.75;;;;;;;0.96;69.64;94802.81;1822241;78;21139;-52
2021/03/04 02:32:51;;;;;;;834.77;357.10;;;;;;;1.01;69.89;94791.62;1809578;79;21148;-51
2021/03/04 02:35:28;;;;;;;412.12;163.22;;;;;;;1.17;69.87;94785.83;1822223;78;21163;-51
2021/03/04 02:38:01;;;;;;;394.30;160.72;;;;;;;1.26;69.49;94776.72;1809723;79;21514;-50
2021/03/04 02:40:31;;;;;;;229.13;102.25;;;;;;;1.18;69.41;94777.30;1822520;78;25457;-50
2021/03/04 02:43:00;;;;;;;290.90;121.22;;;;;;;1.12;69.74;94766.66;1822251;78;21571;-50
2021/03/04 02:45:28;;;;;;;209.60;89.67;;;;;;;1.14;69.70;94765.69;1822287;78;21514;-50
2021/03/04 02:47:57;;;;;;;224.42;96.37;;;;;;;1.16;69.92;94767.43;1809592;79;21064;-50
2021/03/04 02:50:25;;;;;;;200.70;83.85;;;;;;;1.25;69.78;94762.41;1822262;78;21511;-51
2021/03/04 02:52:53;;;;;;;137.05;66.42;;;;;;;1.34;69.58;94762.78;1822334;78;21053;-50
2021/03/04 02:55:22;;;;;;;237.75;101.22;;;;;;;1.36;69.47;94759.70;1783007;79;21289;-50
2021/03/04 02:57:51;;;;;;;233.10;99.05;;;;;;;1.32;69.66;94755.63;1822144;78;21532;-51
2021/03/04 03:00:22;;;;;;;180.67;83.45;;;;;;;1.35;69.86;94745.36;1822259;78;21728;-50
2021/03/04 03:02:52;;;;;;;190.07;90.85;;;;;;;1.41;69.86;94745.19;1809648;79;21091;-51
2021/03/04 03:05:23;;;;;;;194.15;92.85;;;;;;;1.56;69.62;94741.86;1827921;78;21567;-51
2021/03/04 03:07:53;;;;;;;200.00;91.02;;;;;;;1.55;69.62;94735.69;1812596;79;21364;-49
2021/03/04 03:10:21;;;;;;;168.20;79.22;;;;;;;1.54;69.43;94725.98;1825288;78;21087;-51
2021/03/04 03:12:50;;;;;;;160.43;75.50;;;;;;;1.51;69.25;94722.70;1825368;78;21131;-51
2021/03/04 03:15:21;;;;;;;172.07;80.03;;;;;;;1.45;69.68;94720.20;1825387;78;21162;-51
2021/03/04 03:17:50;;;;;;;162.97;78.22;;;;;;;1.41;69.78;94715.38;1825479;78;21111;-51
2021/03/04 03:20:20;;;;;;;225.32;96.45;;;;;;;1.35;69.38;94709.38;1825360;78;21658;-49
2021/03/04 03:22:51;;;;;;;207.67;93.95;;;;;;;1.31;69.84;94709.38;1812324;79;21139;-51
2021/03/04 03:25:20;;;;;;;403.62;166.85;;;;;;;1.37;69.74;94710.55;1825450;78;21570;-51
2021/03/04 03:27:48;;;;;;;235.50;104.55;;;;;;;1.44;69.69;94703.75;1825388;78;21487;-51
2021/03/04 03:30:22;;;;;;;148.72;70.83;;;;;;;1.56;69.63;94705.27;1825376;78;21068;-51
2021/03/04 03:32:56;;;;;;;165.82;79.10;;;;;;;1.67;69.35;94708.14;1825374;78;21360;-57
2021/03/04 03:35:27;;;;;;;168.82;79.80;;;;;;;1.71;68.96;94694.59;1812372;78;21246;-51
2021/03/04 03:37:58;;;;;;;148.75;70.87;;;;;;;1.65;68.77;94691.50;1825392;78;21051;-49
2021/03/04 03:40:27;;;;;;;135.78;64.87;;;;;;;1.58;68.89;94696.16;1812404;78;21092;-50
2021/03/04 03:42:56;;;;;;;139.12;68.30;;;;;;;1.58;69.06;94693.45;1825462;78;21472;-51
2021/03/04 03:45:37;;;;;;;134.30;64.97;;;;;;;1.60;69.21;94681.63;1825345;78;21130;-51
2021/03/04 03:48:09;;;;;;;129.80;61.58;;;;;;;1.66;69.28;94682.20;1812378;78;21060;-50
2021/03/04 03:50:38;;;;;;;130.22;61.30;;;;;;;1.71;69.06;94672.30;1825381;78;21051;-50
2021/03/04 03:53:08;;;;;;;122.37;62.10;;;;;;;1.67;69.19;94678.92;1812374;78;21139;-50
2021/03/04 03:55:36;;;;;;;107.40;51.18;;;;;;;1.59;69.30;94664.61;1825347;78;21063;-51
2021/03/04 03:58:04;;;;;;;88.10;44.83;;;;;;;1.56;69.67;94670.82;1812363;78;21488;-51
2021/03/04 04:00:32;;;;;;;84.07;43.33;;;;;;;1.63;69.84;94664.01;1825272;78;21162;-50
2021/03/04 04:03:02;;;;;;;85.90;43.05;;;;;;;1.73;69.80;94659.12;1812351;78;21147;-52
2021/03/04 04:05:31;;;;;;;94.28;48.55;;;;;;;1.78;70.00;94650.00;1825136;78;21142;-50
2021/03/04 04:08:00;;;;;;;83.80;46.15;;;;;;;1.87;69.80;94653.65;1825373;78;21127;-51
2021/03/04 04:10:31;;;;;;;77.90;39.80;;;;;;;1.93;69.81;94644.72;1812417;78;22119;-50
2021/03/04 04:13:01;;;;;;;66.87;36.50;;;;;;;2.07;69.96;94634.38;1825294;78;21090;-49
2021/03/04 04:15:30;;;;;;;56.35;31.85;;;;;;;2.24;69.98;94626.15;1825451;78;21174;-51
2021/03/04 04:18:00;;;;;;;62.33;36.05;;;;;;;2.41;69.70;94619.05;1812367;79;21511;-50
2021/03/04 04:20:32;;;;;;;73.97;42.10;;;;;;;2.51;69.60;94625.77;1822350;78;21131;-50
2021/03/04 04:23:00;;;;;;;77.95;45.35;;;;;;;2.57;69.25;94617.97;1825266;78;21244;-51
2021/03/04 04:25:30;;;;;;;106.03;58.58;;;;;;;2.51;69.04;94613.55;1825260;78;21123;-50
2021/03/04 04:27:59;;;;;;;84.07;49.45;;;;;;;2.56;69.24;94620.50;1825349;78;21059;-50
2021/03/04 04:30:27;;;;;;;57.08;35.85;;;;;;;2.63;68.77;94620.44;1825314;78;21056;-50
2021/03/04 04:32:55;;;;;;;70.75;41.08;;;;;;;2.62;68.62;94616.97;1825327;78;21051;-51
2021/03/04 04:35:24;;;;;;;62.08;34.33;;;;;;;2.60;68.52;94615.81;1825398;78;21472;-51
2021/03/04 04:37:52;;;;;;;78.70;42.83;;;;;;;2.50;68.72;94609.30;1825249;78;21147;-51
2021/03/04 04:40:21;;;;;;;67.95;38.28;;;;;;;2.49;68.90;94600.20;1825317;78;21111;-50
2021/03/04 04:42:49;;;;;;;56.02;33.20;;;;;;;2.55;68.81;94607.53;1812338;79;21579;-50
2021/03/04 04:45:17;;;;;;;60.45;34.92;;;;;;;2.58;68.65;94598.58;1825269;78;21075;-50
2021/03/04 04:47:46;;;;;;;55.15;32.73;;;;;;;2.58;68.87;94595.08;1825323;78;21245;-51
2021/03/04 04:50:14;;;;;;;46.05;29.95;;;;;;;2.65;68.79;94604.55;1825309;78;21079;-52
2021/03/04 04:52:42;;;;;;;44.33;30.72;;;;;;;2.69;68.71;94588.99;1812365;78;21100;-51
2021/03/04 04:55:11;;;;;;;47.67;29.63;;;;;;;2.72;68.62;94596.33;1825383;78;21578;-51
2021/03/04 04:57:40;;;;;;;45.23;30.55;;;;;;;2.76;68.50;94598.42;1825335;78;21147;-51
2021/03/04 05:00:10;;;;;;;56.75;39.42;;;;;;;2.78;68.40;94580.56;1812315;78;21383;-53
2021/03/04 05:02:38;;;;;;;64.15;38.50;;;;;;;2.85;68.23;94579.13;1825248;78;21088;-50
2021/03/04 05:05:09;;;;;;;74.15;45.83;;;;;;;2.89;68.00;94579.11;1810672;78;21104;-50
2021/03/04 05:07:37;;;;;;;74.53;47.98;;;;;;;2.93;68.06;94581.98;1822086;78;21068;-52
2021/03/04 05:10:09;;;;;;;70.10;45.20;;;;;;;2.97;67.72;94576.50;1822122;78;21056;-50
2021/03/04 05:12:37;;;;;;;59.10;39.00;;;;;;;2.85;67.80;94578.38;1806375;79;21115;-50
2021/03/04 05:15:11;;;;;;;56.95;35.35;;;;;;;2.84;68.16;94574.13;1821988;78;21912;-52
2021/03/04 05:17:39;;;;;;;53.73;33.65;;;;;;;2.92;68.29;94573.66;1806463;78;21159;-50
2021/03/04 05:20:10;;;;;;;62.10;37.30;;;;;;;2.91;68.23;94564.53;1822079;78;21190;-50
2021/03/04 05:22:38;;;;;;;61.50;37.08;;;;;;;2.96;68.26;94565.45;1806391;79;21044;-50
2021/03/04 05:25:10;;;;;;;65.57;38.33;;;;;;;2.95;68.41;94573.42;1822070;78;21124;-50
2021/03/04 05:27:38;;;;;;;71.53;39.83;;;;;;;2.94;68.34;94569.16;1822052;78;21488;-51
2021/03/04 05:30:07;;;;;;;76.77;46.73;;;;;;;2.99;68.30;94567.36;1822106;78;21063;-50
2021/03/04 05:32:35;;;;;;;74.55;44.35;;;;;;;3.06;68.27;94568.66;1806438;79;21052;-51
2021/03/04 05:35:06;;;;;;;80.15;50.98;;;;;;;3.14;68.03;94559.25;1822123;78;21049;-50
2021/03/04 05:37:34;;;;;;;86.63;52.55;;;;;;;3.22;67.86;94560.13;1806356;78;21185;-51
2021/03/04 05:40:04;;;;;;;91.85;52.50;;;;;;;3.29;67.80;94551.14;1821991;78;21104;-50
2021/03/04 05:42:32;;;;;;;78.72;47.95;;;;;;;3.40;67.62;94555.27;1806314;79;21084;-50
2021/03/04 05:45:03;;;;;;;99.72;61.37;;;;;;;3.43;67.31;94554.45;1822028;78;21124;-51
2021/03/04 05:47:31;;;;;;;87.85;53.75;;;;;;;3.38;67.40;94554.16;1806329;79;21139;-50
2021/03/04 05:50:06;;;;;;;116.62;62.85;;;;;;;3.31;67.31;94551.50;1822105;78;21215;-51
2021/03/04 05:52:39;;;;;;;116.90;67.55;;;;;;;3.21;67.83;94559.20;1822091;78;21536;-49
2021/03/04 05:55:08;;;;;;;126.05;74.58;;;;;;;3.19;68.12;94557.45;1822096;78;21148;-55
2021/03/04 05:57:38;;;;;;;104.80;65.00;;;;;;;3.20;68.15;94555.70;1806324;79;21088;-51
2021/03/04 06:00:08;;;;;;;106.45;70.25;;;;;;;3.23;68.07;94555.48;1822035;78;21468;-51
2021/03/04 06:02:36;;;;;;;112.35;69.95;;;;;;;3.21;67.93;94546.97;1806302;79;21141;-50
2021/03/04 06:05:06;;;;;;;101.78;63.92;;;;;;;3.21;68.13;94555.12;1821541;78;21143;-51
2021/03/04 06:07:34;;;;;;;115.70;76.20;;;;;;;3.25;68.11;94551.17;1796181;78;21503;-51
2021/03/04 06:10:06;;;;;;;122.67;78.83;;;;;;;3.28;68.05;94548.23;1810858;79;21096;-51
2021/03/04 06:12:34;;;;;;;101.12;68.25;;;;;;;3.36;68.30;94551.05;1796189;78;21074;-50
2021/03/04 06:15:07;;;;;;;82.60;52.48;;;;;;;3.52;68.11;94544.63;1812515;79;21212;-51
2021/03/04 06:17:35;;;;;;;66.53;42.90;;;;;;;3.63;67.76;94539.06;1796003;78;21070;-51
2021/03/04 06:20:06;;;;;;;75.67;45.45;;;;;;;3.68;67.47;94542.11;1810863;79;21072;-51
2021/03/04 06:22:38;;;;;;;90.38;55.38;;;;;;;3.64;67.10;94544.11;1795879;79;21506;-51
2021/03/04 06:25:10;;;;;;;92.47;53.52;;;;;;;3.55;67.13;94538.38;1798664;79;21048;-50
2021/03/04 06:27:40;;;;;;;83.37;52.17;;;;;;;3.50;67.32;94536.12;1795921;79;21190;-52
2021/03/04 06:30:16;;;;;;;77.62;48.20;;;;;;;3.49;67.47;94540.02;1804206;79;21559;-51
2021/03/04 06:32:58;;;;;;;80.03;49.30;;;;;;;3.51;67.70;94532.22;1804089;79;21182;-53
2021/03/04 06:35:43;;;;;;;91.50;52.53;;;;;;;3.57;67.77;94526.53;1802948;78;21039;-52
2021/03/04 06:38:16;;;;;;;105.03;59.85;;;;;;;3.65;67.92;94527.21;1806651;79;21542;-51
2021/03/04 06:40:59;;;;;;;115.03;66.25;;;;;;;3.80;68.24;94534.77;1889959;75;22651;-52
2021/03/04 06:43:28;;;;;;;95.17;53.48;;;;;;;3.92;68.09;94523.34;1860869;77;21572;-51
2021/03/04 06:46:06;;;;;;;95.77;51.30;;;;;;;4.10;67.88;94511.62;1854027;75;21417;-52
2021/03/04 06:48:35;;;;;;;102.82;59.88;;;;;;;4.29;67.49;94510.94;1853520;76;21575;-53
2021/03/04 06:51:06;;;;;;;110.20;62.55;;;;;;;4.53;67.13;94508.40;1846690;77;21135;-51
2021/03/04 06:53:34;;;;;;;117.87;66.95;;;;;;;4.74;66.96;94501.23;1846540;77;21615;-53
2021/03/04 06:56:09;;;;;;;105.25;62.15;;;;;;;4.94;66.59;94499.92;1853256;75;21615;-52
2021/03/04 06:58:39;;;;;;;107.27;58.10;;;;;;;5.15;65.97;94503.00;1831187;76;21148;-51
2021/03/04 07:01:13;;;;;;;117.72;63.25;;;;;;;5.35;64.83;94498.33;1787830;79;21647;-54
2021/03/04 07:03:46;;;;;;;99.52;56.18;;;;;;;5.54;64.36;94507.10;1792115;78;21123;-53
2021/03/04 07:06:20;;;;;;;140.70;70.32;;;;;;;5.71;63.94;94504.61;1794143;78;21214;-54
2021/03/04 07:08:50;;;;;;;130.20;68.23;;;;;;;5.83;63.40;94493.09;1794443;78;21187;-53
2021/03/04 07:11:22;;;;;;;68.65;38.55;;;;;;;5.96;62.84;94481.70;1790322;78;21366;-51
2021/03/04 07:13:50;;;;;;;86.20;49.53;;;;;;;6.09;60.76;94481.19;1796275;78;21541;-51
2021/03/04 07:16:23;;;;;;;81.97;49.15;;;;;;;6.33;61.48;94485.33;1792396;78;21107;-51
2021/03/04 07:18:58;;;;;;;81.40;47.43;;;;;;;6.51;61.50;94486.42;1794788;78;21162;-56
2021/03/04 07:21:29;;;;;;;69.67;41.60;;;;;;;6.72;60.99;94481.05;1795402;78;21226;-53
2021/03/04 07:23:57;;;;;;;70.37;43.00;;;;;;;6.94;60.50;94471.88;1790399;78;21740;-52
2021/03/04 07:26:26;;;;;;;66.62;39.95;;;;;;;7.19;59.72;94471.98;1793448;78;21173;-52
2021/03/04 07:28:56;;;;;;;62.45;37.20;;;;;;;7.42;59.16;94464.30;1790337;78;21130;-57
2021/03/04 07:31:25;;;;;;;74.22;39.10;;;;;;;7.66;58.51;94460.09;1793371;78;21179;-52
2021/03/04 07:33:54;;;;;;;46.83;28.32;;;;;;;7.93;56.93;94461.84;1800133;78;21171;-56
2021/03/04 07:36:24;;;;;;;41.92;23.22;;;;;;;8.23;52.63;94454.47;1801406;78;21206;-53
2021/03/04 07:39:03;;;;;;;31.65;19.87;;;;;;;8.59;52.60;94451.39;1794793;78;21240;-54
2021/03/04 07:41:44;;;;;;;22.62;15.68;;;;;;;8.88;51.14;94436.30;1791736;78;21224;-51
2021/03/04 07:44:31;;;;;;;26.17;14.60;;;;;;;9.19;48.40;94435.78;1809644;78;21171;-51
2021/03/04 07:47:01;;;;;;;21.68;13.30;;;;;;;9.55;45.67;94430.55;1784232;79;21158;-54
2021/03/04 07:49:45;;;;;;;28.55;13.93;;;;;;;9.89;45.06;94432.62;1792133;78;21253;-52
2021/03/04 07:52:17;;;;;;;21.27;12.53;;;;;;;10.17;43.83;94432.17;1794802;79;21142;-53
2021/03/04 07:54:50;;;;;;;23.80;15.48;;;;;;;10.40;42.67;94422.02;1774879;79;21131;-52
2021/03/04 07:57:23;;;;;;;17.92;11.95;;;;;;;10.61;41.52;94413.69;1802326;78;21182;-56
2021/03/04 07:59:56;;;;;;;20.27;11.83;;;;;;;10.77;40.75;94422.42;1798158;78;22315;-55
2021/03/04 08:02:33;;;;;;;22.20;12.33;;;;;;;10.91;41.43;94416.34;1791811;78;21175;-52
2021/03/04 08:05:35;;;;;;;20.15;11.25;;;;;;;11.05;40.29;94418.50;1787866;79;21186;-54
2021/03/04 08:08:17;;;;;;;23.23;11.87;;;;;;;11.18;39.74;94402.58;1791608;79;21165;-57
2021/03/04 08:10:54;;;;;;;25.32;12.88;;;;;;;11.29;39.51;94415.28;1789071;78;21494;-53
2021/03/04 08:13:36;;;;;;;22.65;12.98;;;;;;;11.38;38.75;94403.50;1784503;79;21111;-52
2021/03/04 08:16:12;;;;;;;23.83;12.03;;;;;;;11.48;38.56;94409.14;1790371;79;21352;-51
2021/03/04 08:18:41;;;;;;;16.67;10.48;;;;;;;11.56;38.38;94400.76;1787160;79;21180;-53
2021/03/04 08:21:10;;;;;;;22.15;11.93;;;;;;;11.66;37.66;94398.13;1792291;79;21190;-52
2021/03/04 08:23:45;;;;;;;21.65;14.60;;;;;;;11.79;37.79;94398.72;1790907;78;21366;-54
2021/03/04 08:26:26;;;;;;;31.45;27.37;;;;;;;11.90;37.69;94387.36;1793996;78;21594;-53
2021/03/04 08:29:10;;;;;;;25.70;13.93;;;;;;;12.06;37.97;94381.48;1799490;78;21183;-53
2021/03/04 08:31:47;;;;;;;16.45;11.30;;;;;;;12.19;36.48;94393.09;1807449;78;21174;-53
2021/03/04 08:34:17;;;;;;;32.10;15.30;;;;;;;12.24;35.86;94386.94;1795075;79;21140;-51
2021/03/04 08:36:50;;;;;;;20.65;11.03;;;;;;;12.31;35.61;94379.72;1781359;79;21128;-54
2021/03/04 08:39:19;;;;;;;14.75;10.72;;;;;;;12.41;35.56;94366.02;1773271;80;21048;-54
2021/03/04 08:41:47;;;;;;;13.58;8.88;;;;;;;12.51;35.73;94361.98;1752571;79;21366;-51
2021/03/04 08:44:18;;;;;;;21.65;10.38;;;;;;;12.67;34.73;94363.72;1811896;78;21128;-52
2021/03/04 08:46:49;;;;;;;17.75;10.60;;;;;;;12.79;35.11;94366.09;1795134;78;21524;-53
2021/03/04 08:49:24;;;;;;;22.67;10.68;;;;;;;12.89;35.18;94372.47;1794828;78;21103;-55
2021/03/04 08:51:54;;;;;;;18.02;10.55;;;;;;;12.94;34.39;94368.33;1801019;78;21151;-50
2021/03/04 08:54:28;;;;;;;15.32;10.63;;;;;;;12.97;34.69;94351.59;1794635;78;21368;-51
2021/03/04 08:57:08;;;;;;;21.68;9.25;;;;;;;12.99;34.17;94358.01;1795038;78;21112;-50
2021/03/04 08:59:36;;;;;;;30.80;11.15;;;;;;;13.01;34.17;94355.53;1793687;79;21504;-53
2021/03/04 09:02:10;;;;;;;26.73;13.50;;;;;;;13.08;34.79;94348.28;1815613;78;21163;-52
2021/03/04 09:04:46;;;;;;;26.30;13.58;;;;;;;13.27;34.10;94341.38;1861506;75;22783;-51
2021/03/04 09:07:35;;;;;;;23.87;14.30;;;;;;;13.33;34.41;94349.91;1758158;80;21560;-52
2021/03/04 09:10:06;;;;;;;20.05;11.95;;;;;;;13.44;33.92;94343.20;1759465;79;21277;-54
2021/03/04 09:12:45;;;;;;;18.45;11.30;;;;;;;13.59;33.61;94347.38;1768560;80;21574;-49
2021/03/04 09:15:17;;;;;;;36.40;12.85;;;;;;;13.73;33.54;94343.83;1770452;79;21606;-50
2021/03/04 09:17:46;;;;;;;21.90;11.90;;;;;;;13.85;33.72;94351.08;1774008;80;21146;-52
2021/03/04 09:20:15;;;;;;;22.82;12.98;;;;;;;13.88;33.97;94339.84;1762154;80;21802;-52
2021/03/04 09:22:45;;;;;;;28.27;12.05;;;;;;;13.93;33.28;94334.23;1777931;79;21144;-53
2021/03/04 09:25:20;;;;;;;21.10;10.72;;;;;;;13.98;32.99;94339.12;1768569;79;21151;-52
2021/03/04 09:27:48;;;;;;;;;;;;;;;14.02;31.85;94343.19;1752679;80;21554;-53
2021/03/04 09:30:29;;;;;;;13.93;9.60;;;;;;;14.01;31.86;94336.77;1767389;80;20225;-51
2021/03/04 09:32:58;;;;;;;12.60;8.65;;;;;;;14.02;31.93;94331.38;1748826;80;21174;-56
2021/03/04 09:35:27;;;;;;;22.93;9.63;;;;;;;14.05;31.25;94339.49;1761142;80;22264;-55
2021/03/04 09:38:06;;;;;;;13.72;9.68;;;;;;;14.03;30.70;94332.91;1777002;79;21173;-52
2021/03/04 09:40:35;;;;;;;18.35;8.70;;;;;;;13.92;29.79;94321.66;1778631;79;21166;-52
2021/03/04 09:43:09;;;;;;;17.98;8.70;;;;;;;13.81;29.92;94329.78;1785185;79;21130;-52
2021/03/04 09:45:45;;;;;;;17.27;9.33;;;;;;;13.75;30.27;94318.62;1754347;79;21197;-53
2021/03/04 09:48:15;;;;;;;18.60;9.85;;;;;;;13.72;30.56;94319.59;1762191;79;21221;-52
2021/03/04 09:50:52;;;;;;;21.15;11.25;;;;;;;13.68;29.87;94319.02;1773477;79;21086;-54
2021/03/04 09:53:21;;;;;;;13.90;9.23;;;;;;;13.67;29.77;94316.72;1763144;79;21135;-53
2021/03/04 09:55:51;;;;;;;12.33;8.58;;;;;;;13.69;29.68;94315.63;1754132;80;21446;-54
2021/03/04 09:58:22;;;;;;;21.17;9.45;;;;;;;13.78;29.75;94308.63;1760787;80;21130;-52
2021/03/04 10:01:00;;;;;;;12.98;9.55;;;;;;;13.90;29.86;94311.69;1763594;79;22268;-51
2021/03/04 10:03:37;;;;;;;18.70;10.78;;;;;;;14.07;29.53;94307.19;1746372;81;21169;-53
2021/03/04 10:06:06;;;;;;;17.48;11.57;;;;;;;14.23;29.56;94307.48;1721077;82;21173;-52
2021/03/04 10:08:40;;;;;;;28.32;11.40;;;;;;;14.37;29.10;94293.47;1739615;80;21189;-51
2021/03/04 10:11:24;;;;;;;20.17;13.93;;;;;;;14.49;29.51;94296.64;1765858;79;22136;-53
2021/03/04 10:13:53;;;;;;;15.95;10.25;;;;;;;14.68;29.24;94303.47;1764648;81;21456;-53
2021/03/04 10:16:22;;;;;;;13.25;8.98;;;;;;;14.74;28.08;94295.21;1766133;79;21154;-52
2021/03/04 10:18:51;;;;;;;24.75;11.20;;;;;;;14.76;27.99;94292.11;1745890;80;21678;-53
2021/03/04 10:21:20;;;;;;;63.73;17.02;;;;;;;14.90;28.19;94289.12;1745078;81;21155;-52
2021/03/04 10:23:49;;;;;;;25.45;10.85;;;;;;;15.06;29.09;94285.78;1739157;81;21131;-52
2021/03/04 10:26:19;;;;;;;19.98;10.05;;;;;;;15.19;28.20;94275.85;1709437;82;22736;-54
2021/03/04 10:28:49;;;;;;;22.82;9.53;;;;;;;15.31;28.02;94283.08;1737055;81;21164;-51
2021/03/04 10:31:18;;;;;;;16.70;8.28;;;;;;;15.47;27.86;94274.16;1735980;81;21167;-54
2021/03/04 10:33:48;;;;;;;21.37;9.15;;;;;;;15.71;27.73;94271.86;1740289;82;21075;-52
2021/03/04 10:36:17;;;;;;;32.03;10.80;;;;;;;16.02;27.81;94262.77;1735121;80;21707;-51
2021/03/04 10:38:45;;;;;;;17.75;9.53;;;;;;;16.32;27.69;94267.52;1749383;80;21367;-52
2021/03/04 10:41:14;;;;;;;15.85;7.87;;;;;;;16.46;27.06;94268.79;1737931;82;21638;-52
2021/03/04 10:43:43;;;;;;;24.43;9.53;;;;;;;16.50;26.40;94269.92;1737479;80;21177;-52
2021/03/04 10:46:12;;;;;;;29.67;11.25;;;;;;;16.40;27.17;94254.73;1737068;82;21213;-53
2021/03/04 10:48:41;;;;;;;19.30;10.13;;;;;;;16.34;27.42;94255.31;1739880;81;21181;-52
2021/03/04 10:51:09;;;;;;;19.32;10.60;;;;;;;16.33;27.20;94249.63;1756136;81;22831;-52
2021/03/04 10:53:38;;;;;;;17.60;9.88;;;;;;;16.47;26.64;94241.16;1751519;81;22334;-55
2021/03/04 10:56:08;;;;;;;11.95;8.28;;;;;;;16.68;26.45;94243.91;1741683;81;21443;-52
2021/03/04 10:58:36;;;;;;;21.62;10.08;;;;;;;16.83;26.71;94232.59;1749739;81;21156;-53
2021/03/04 11:01:05;;;;;;;15.23;8.58;;;;;;;17.00;26.16;94227.85;1750489;79;21199;-55
2021/03/04 11:03:34;;;;;;;15.63;11.50;;;;;;;17.17;26.07;94218.93;1763519;79;21195;-53
2021/03/04 11:06:03;;;;;;;55.58;11.97;;;;;;;17.28;26.41;94210.63;1740034;80;21134;-56
2021/03/04 11:08:33;;;;;;;17.87;9.43;;;;;;;17.46;26.18;94218.52;1737785;82;21150;-56
2021/03/04 11:11:03;;;;;;;15.72;9.88;;;;;;;17.54;25.60;94220.30;1733667;80;21202;-58
2021/03/04 11:13:31;;;;;;;16.73;8.43;;;;;;;17.47;25.52;94208.91;1730379;80;21177;-56
2021/03/04 11:16:00;;;;;;;17.55;9.38;;;;;;;17.38;25.80;94207.13;1747264;80;21500;-52
2021/03/04 11:18:28;;;;;;;13.10;8.83;;;;;;;17.25;25.42;94199.13;1737222;80;21129;-53
2021/03/04 11:20:58;;;;;;;23.40;10.13;;;;;;;17.13;25.72;94188.59;1720622;82;21168;-54
2021/03/04 11:23:27;;;;;;;32.90;12.03;;;;;;;17.13;25.99;94192.76;1727942;82;21697;-53
2021/03/04 11:25:57;;;;;;;15.48;10.60;;;;;;;17.07;26.68;94187.83;1739731;80;21264;-53
2021/03/04 11:28:27;;;;;;;17.77;11.45;;;;;;;17.09;26.73;94184.56;1749372;82;21582;-52
2021/03/04 11:30:56;;;;;;;21.33;10.60;;;;;;;17.03;26.11;94178.21;1745767;81;21201;-53
2021/03/04 11:33:25;;;;;;;13.53;9.60;;;;;;;17.20;26.47;94173.44;1748902;82;21205;-53
2021/03/04 11:35:54;;;;;;;16.23;10.93;;;;;;;17.50;26.37;94167.56;1742413;82;21023;-52
2021/03/04 11:38:23;;;;;;;25.70;13.00;;;;;;;17.63;26.30;94167.83;1749457;80;21627;-52